Time;durP1;ratioP1;P1;durP2;ratioP2;P2;SDS_P1;SDS_P2;PMS_P1;PMS_P2;Temp;Humidity;BMP_temperature;BMP_pressure;BME280_temperature;BME280_humidity;BME280_pressure;Samples;Min_cycle;Max_cycle;Signal;HPM_P1;HPM_P2
2022/03/23 00:01:09;;;;;;;16.17;7.07;;;;;;;3.66;39.96;102068.78;31234531;28;20490;-72
2022/03/23 00:16:11;;;;;;;18.57;8.63;;;;;;;3.64;40.30;102054.88;31267247;28;20057;-73
2022/03/23 00:31:14;;;;;;;25.47;11.70;;;;;;;3.17;41.75;102056.81;31231971;28;20049;-72
2022/03/23 00:46:16;;;;;;;22.73;10.03;;;;;;;2.58;44.02;102070.00;31239772;28;20075;-73
2022/03/23 01:01:18;;;;;;;20.70;10.30;;;;;;;2.67;43.75;102054.69;31220802;28;20049;-73
2022/03/23 01:16:20;;;;;;;15.87;7.87;;;;;;;2.50;43.79;102053.91;31232733;28;20468;-72
2022/03/23 01:31:23;;;;;;;17.13;8.93;;;;;;;2.55;43.90;102035.00;31231133;28;20041;-73
2022/03/23 01:46:26;;;;;;;22.53;8.90;;;;;;;2.44;45.33;102039.09;31228083;28;20089;-72
2022/03/23 02:01:28;;;;;;;15.87;9.00;;;;;;;2.26;44.57;102033.75;31211564;28;20062;-73
2022/03/23 02:16:44;;;;;;;17.03;9.20;;;;;;;2.17;44.97;102029.47;31227550;28;20060;-74
2022/03/23 02:31:46;;;;;;;24.13;9.77;;;;;;;2.01;47.36;102021.91;31217197;28;20057;-74
2022/03/23 02:46:49;;;;;;;19.00;9.27;;;;;;;1.82;49.78;102024.06;31210097;28;20375;-73
2022/03/23 03:02:06;;;;;;;19.53;9.87;;;;;;;1.61;53.35;102031.91;31213946;28;20056;-73
2022/03/23 03:17:08;;;;;;;19.30;9.67;;;;;;;1.61;50.87;102023.88;31214691;28;20057;-73
2022/03/23 03:32:10;;;;;;;20.63;10.23;;;;;;;1.64;50.23;102020.56;31225093;28;20049;-73
2022/03/23 03:47:12;;;;;;;25.67;9.40;;;;;;;1.61;51.33;102015.84;31213357;28;20513;-73
2022/03/23 04:02:15;;;;;;;20.07;9.37;;;;;;;1.65;51.65;102002.63;31234408;28;20053;-74
2022/03/23 04:17:17;;;;;;;24.47;9.40;;;;;;;1.68;52.35;102007.31;31237154;28;20056;-72
2022/03/23 04:32:19;;;;;;;19.50;9.67;;;;;;;2.02;51.00;102001.25;31241502;28;20428;-72
2022/03/23 04:47:21;;;;;;;22.80;9.90;;;;;;;2.39;50.62;101995.25;31240687;28;20064;-73
2022/03/23 05:02:25;;;;;;;22.53;10.13;;;;;;;3.02;48.83;101995.63;31220039;28;20054;-73
2022/03/23 05:17:27;;;;;;;21.60;9.63;;;;;;;3.57;48.88;101997.41;31205465;28;20070;-73
2022/03/23 05:32:30;;;;;;;17.70;10.67;;;;;;;4.04;48.44;101998.06;31222681;28;20401;-72
2022/03/23 05:47:32;;;;;;;22.07;10.43;;;;;;;4.53;45.84;101987.53;31217849;28;20053;-73
2022/03/23 06:02:34;;;;;;;19.20;10.40;;;;;;;5.74;42.26;101982.25;31214870;28;20510;-72
2022/03/23 06:17:38;;;;;;;21.60;11.80;;;;;;;7.42;39.47;101965.88;31226551;28;20693;-73
2022/03/23 06:32:40;;;;;;;23.83;11.77;;;;;;;8.62;36.71;101975.72;31212183;28;20067;-74
2022/03/23 06:47:42;;;;;;;16.70;9.80;;;;;;;9.46;35.06;101955.78;31218090;28;20061;-74
2022/03/23 07:02:46;;;;;;;19.73;9.80;;;;;;;11.23;31.71;101956.97;31224295;28;20046;-71
2022/03/23 07:17:49;;;;;;;7.53;4.47;;;;;;;12.45;28.67;101940.06;31219178;28;20045;-73
2022/03/23 07:32:52;;;;;;;13.97;5.73;;;;;;;12.80;27.42;101942.03;31231152;28;20053;-73
2022/03/23 07:47:54;;;;;;;16.57;5.73;;;;;;;13.50;25.56;101924.06;31228832;28;20052;-74
2022/03/23 08:02:56;;;;;;;12.53;6.43;;;;;;;14.64;23.95;101925.06;31234012;28;20525;-72
2022/03/23 08:17:59;;;;;;;9.80;5.07;;;;;;;15.20;21.19;101900.38;31216256;28;20049;-74
2022/03/23 08:33:02;;;;;;;13.57;5.47;;;;;;;16.17;21.65;101887.06;31231025;28;20060;-80
2022/03/23 08:48:09;;;;;;;11.70;5.13;;;;;;;16.11;21.50;101864.06;31243684;28;20065;-78
2022/03/23 09:03:11;;;;;;;13.97;8.83;;;;;;;16.75;21.39;101835.69;31252377;28;20548;-81
2022/03/23 09:18:15;;;;;;;13.33;6.63;;;;;;;17.13;20.63;101823.19;31240642;28;20481;-78
2022/03/23 09:33:18;;;;;;;8.60;5.45;;;;;;;17.43;20.46;101804.97;31259648;28;20505;-77
2022/03/23 09:48:24;;;;;;;10.23;5.57;;;;;;;17.21;19.95;101788.16;31226164;28;20402;-76
2022/03/23 10:03:38;;;;;;;12.32;6.72;;;;;;;18.21;19.38;101764.72;31236981;28;20057;-81
2022/03/23 10:18:53;;;;;;;9.40;4.83;;;;;;;17.86;18.62;101736.16;31237972;28;20677;-74
2022/03/23 10:34:08;;;;;;;9.60;5.25;;;;;;;17.75;19.12;101703.44;31249059;28;20041;-79
2022/03/23 10:49:11;;;;;;;8.60;4.73;;;;;;;18.97;18.14;101675.06;31255814;28;20133;-83
2022/03/23 11:04:13;;;;;;;10.93;5.27;;;;;;;18.68;17.86;101646.81;31234973;28;20136;-73
2022/03/23 11:19:19;;;;;;;10.80;5.03;;;;;;;18.68;17.72;101624.81;31213589;28;20058;-74
2022/03/23 11:34:33;;;;;;;6.87;5.10;;;;;;;18.76;17.17;101592.38;31223510;28;20075;-75
2022/03/23 11:49:38;;;;;;;11.93;5.47;;;;;;;19.73;16.57;101575.13;31212880;28;20392;-75
2022/03/23 12:04:40;;;;;;;9.32;5.40;;;;;;;19.01;17.00;101564.88;31205651;28;20061;-76
2022/03/23 12:19:53;;;;;;;8.50;4.93;;;;;;;15.53;19.22;101552.03;31203038;28;20449;-73
2022/03/23 12:34:56;;;;;;;11.50;5.47;;;;;;;14.12;20.24;101522.78;31179356;28;20049;-74
2022/03/23 13:05:21;;;;;;;14.37;4.63;;;;;;;13.38;20.68;101490.81;31231242;28;20645;-82
2022/03/23 13:20:27;;;;;;;8.53;5.23;;;;;;;13.24;21.05;101470.66;31213856;28;20136;-73
2022/03/23 13:35:29;;;;;;;10.17;5.80;;;;;;;13.30;21.37;101452.69;31176796;28;20060;-77
2022/03/23 13:50:31;;;;;;;11.63;6.13;;;;;;;13.09;21.81;101433.75;31225416;28;20048;-78
2022/03/23 14:05:35;;;;;;;11.40;4.63;;;;;;;13.13;21.92;101420.88;31224581;28;20063;-85
2022/03/23 14:20:50;;;;;;;9.13;4.67;;;;;;;12.81;22.13;101404.00;31227527;28;20049;-86
2022/03/23 14:35:54;;;;;;;6.60;4.33;;;;;;;12.65;21.93;101382.75;31252690;28;20146;-80
2022/03/23 14:51:00;;;;;;;7.30;4.60;;;;;;;12.61;22.80;101374.59;31199135;28;20049;-72
2022/03/23 15:21:28;;;;;;;9.80;4.40;;;;;;;12.15;23.04;101355.84;31201090;28;20046;-74
2022/03/23 15:36:33;;;;;;;7.40;4.53;;;;;;;11.97;22.89;101357.13;31160753;28;20057;-82
2022/03/23 15:51:36;;;;;;;10.60;5.40;;;;;;;11.73;22.65;101342.47;31237417;28;20055;-78
2022/03/23 16:06:38;;;;;;;20.60;6.60;;;;;;;11.38;22.42;101338.69;31206287;22;20054;-78
2022/03/23 16:21:40;;;;;;;13.03;6.33;;;;;;;11.12;22.86;101334.50;30826093;28;20054;-77
2022/03/23 16:36:43;;;;;;;13.87;7.77;;;;;;;10.93;23.18;101335.69;30804064;28;20046;-83
2022/03/23 16:51:46;;;;;;;20.43;7.97;;;;;;;10.80;23.70;101336.50;30874039;28;20093;-73
2022/03/23 17:22:09;;;;;;;17.77;10.03;;;;;;;10.34;24.67;101336.50;30821976;28;20047;-75
2022/03/23 17:37:11;;;;;;;26.47;13.17;;;;;;;10.29;25.39;101334.16;30791024;28;20492;-75
2022/03/23 17:52:15;;;;;;;23.80;12.90;;;;;;;10.09;26.32;101322.88;30820597;28;20105;-75
2022/03/23 18:07:17;;;;;;;30.50;13.97;;;;;;;9.93;26.32;101313.13;30822505;28;20055;-75
2022/03/23 18:22:26;;;;;;;28.30;14.37;;;;;;;9.80;26.55;101303.81;30817751;28;20144;-75
2022/03/23 18:37:28;;;;;;;26.70;14.43;;;;;;;9.70;27.25;101293.72;30822633;28;20145;-75
2022/03/23 18:52:30;;;;;;;23.27;12.40;;;;;;;9.45;26.96;101276.59;30799606;28;20060;-75
2022/03/23 19:07:33;;;;;;;24.23;11.70;;;;;;;9.30;26.60;101269.56;30814926;28;20183;-75
2022/03/23 19:22:35;;;;;;;24.97;13.00;;;;;;;9.21;27.15;101256.38;30826411;28;20165;-74
2022/03/23 19:37:37;;;;;;;26.07;12.57;;;;;;;9.11;28.01;101235.44;30860874;28;20094;-80
2022/03/23 19:52:39;;;;;;;28.97;13.53;;;;;;;8.90;27.93;101230.69;30881316;28;20053;-79
2022/03/23 20:24:08;;;;;;;31.33;16.37;;;;;;;8.24;29.76;101210.91;30882749;28;20096;-80
2022/03/23 20:39:10;;;;;;;30.87;15.77;;;;;;;8.12;30.01;101197.69;30879882;28;20057;-79
2022/03/23 20:54:13;;;;;;;47.30;21.90;;;;;;;8.07;30.95;101184.50;30876629;28;20460;-81
2022/03/23 21:09:15;;;;;;;29.30;16.53;;;;;;;7.73;31.57;101171.09;30882436;28;20067;-79
2022/03/23 21:24:20;;;;;;;33.70;17.67;;;;;;;7.31;32.70;101160.66;30872641;28;20085;-79
2022/03/23 21:39:22;;;;;;;35.93;14.23;;;;;;;6.47;33.17;101178.13;30887754;28;20051;-83
2022/03/23 21:54:24;;;;;;;39.03;19.03;;;;;;;5.75;33.18;101159.25;30862045;28;20106;-79
2022/03/23 22:09:26;;;;;;;39.80;17.30;;;;;;;5.61;33.93;101152.88;30850591;28;20057;-80
2022/03/23 22:24:29;;;;;;;28.83;12.77;;;;;;;5.69;32.36;101139.13;30888952;28;20117;-80
2022/03/23 22:39:31;;;;;;;21.70;9.97;;;;;;;5.23;34.33;101135.63;30882992;28;20561;-79
2022/03/23 22:54:33;;;;;;;22.53;8.80;;;;;;;5.03;33.24;101118.72;30871707;28;20425;-79
2022/03/23 23:09:36;;;;;;;16.00;7.20;;;;;;;4.86;33.04;101103.03;30852707;28;20113;-79
2022/03/23 23:24:38;;;;;;;12.00;7.30;;;;;;;4.90;34.18;101079.66;30859748;28;20059;-79
2022/03/23 23:39:41;;;;;;;15.23;7.40;;;;;;;4.84;35.64;101056.88;30859042;28;20050;-81
2022/03/23 23:54:43;;;;;;;18.57;8.30;;;;;;;4.88;35.41;101041.56;30871942;28;20042;-80
